AFR79TA LFPG-LFBD
Flight info
| Callsign | AFR79TA |
|---|---|
| Flight time | 1h 3m |
| Altitude | 29000 |
| Route | AGOPA DCT ARKIP DCT ARMAL DCT ARTAX DCT BEBIX/N0361F230 DCT LMG |
| Aircraft | A320/M-SDE2E3FGIJ1RWY/HB1 |
Departure
| Time | 2026-05-04 10:34 |
|---|---|
| Airport | Charles de Gaulle International Airport (LFPG) |
Arrival
| Time | 2026-05-04 11:37 |
|---|---|
| Airport | Bordeaux–Mérignac Airport (LFBD) |
| Time | Latitude | Longitude | Altitude | Speed | Heading |
|---|---|---|---|---|---|
| 2026-05-04 10:13 | 49.00653 | 2.58016 | 355 ft | 0 kts | 268° |
| 2026-05-04 10:25 | 49.00653 | 2.58034 | 354 ft | 4 kts | 269° |
| 2026-05-04 10:25 | 49.00652 | 2.58075 | 359 ft | 4 kts | 277° |
| 2026-05-04 10:25 | 49.00647 | 2.58114 | 361 ft | 4 kts | 295° |
| 2026-05-04 10:25 | 49.00632 | 2.58141 | 364 ft | 3 kts | 349° |
| 2026-05-04 10:26 | 49.00624 | 2.58143 | 364 ft | 0 kts | 355° |
| 2026-05-04 10:28 | 49.00655 | 2.58139 | 362 ft | 10 kts | 355° |
| 2026-05-04 10:28 | 49.00752 | 2.58127 | 361 ft | 18 kts | 355° |
| 2026-05-04 10:28 | 49.00888 | 2.58097 | 356 ft | 18 kts | 329° |
| 2026-05-04 10:29 | 49.00899 | 2.57912 | 354 ft | 21 kts | 266° |
| 2026-05-04 10:29 | 49.00883 | 2.57638 | 354 ft | 30 kts | 265° |
| 2026-05-04 10:29 | 49.00865 | 2.57314 | 360 ft | 31 kts | 265° |
| 2026-05-04 10:29 | 49.00847 | 2.56981 | 355 ft | 31 kts | 266° |
| 2026-05-04 10:30 | 49.00830 | 2.56656 | 354 ft | 31 kts | 265° |
| 2026-05-04 10:30 | 49.00805 | 2.56330 | 358 ft | 31 kts | 261° |
| 2026-05-04 10:30 | 49.00775 | 2.56004 | 355 ft | 31 kts | 261° |
| 2026-05-04 10:30 | 49.00745 | 2.55687 | 354 ft | 29 kts | 263° |
| 2026-05-04 10:31 | 49.00723 | 2.55398 | 354 ft | 21 kts | 262° |
| 2026-05-04 10:31 | 49.00643 | 2.55248 | 358 ft | 20 kts | 180° |
| 2026-05-04 10:32 | 48.99827 | 2.55768 | 358 ft | 19 kts | 109° |
| 2026-05-04 10:33 | 48.99723 | 2.55814 | 354 ft | 16 kts | 178° |
| 2026-05-04 10:33 | 48.99612 | 2.55839 | 358 ft | 16 kts | 133° |
| 2026-05-04 10:33 | 48.99611 | 2.56048 | 355 ft | 37 kts | 85° |
| 2026-05-04 10:33 | 48.99654 | 2.56848 | 354 ft | 111 kts | 85° |
| 2026-05-04 10:34 | 48.99733 | 2.58311 | 489 ft | 152 kts | 85° |
| 2026-05-04 10:34 | 48.99816 | 2.59864 | 1281 ft | 147 kts | 86° |
| 2026-05-04 10:34 | 48.99896 | 2.61438 | 2027 ft | 151 kts | 87° |
| 2026-05-04 10:34 | 48.99980 | 2.63044 | 2927 ft | 153 kts | 86° |
| 2026-05-04 10:35 | 49.00064 | 2.64666 | 3834 ft | 157 kts | 86° |
| 2026-05-04 10:35 | 49.00156 | 2.66415 | 4444 ft | 179 kts | 86° |
| 2026-05-04 10:35 | 49.00261 | 2.68431 | 5054 ft | 203 kts | 87° |
| 2026-05-04 10:35 | 49.00379 | 2.70699 | 5648 ft | 226 kts | 86° |
| 2026-05-04 10:36 | 49.00509 | 2.73190 | 6295 ft | 247 kts | 86° |
| 2026-05-04 10:36 | 49.00649 | 2.75851 | 7103 ft | 255 kts | 86° |
| 2026-05-04 10:36 | 49.00694 | 2.78566 | 7862 ft | 262 kts | 97° |
| 2026-05-04 10:36 | 49.00423 | 2.81415 | 8447 ft | 278 kts | 99° |
| 2026-05-04 10:37 | 49.00105 | 2.84358 | 9319 ft | 284 kts | 100° |
| 2026-05-04 10:37 | 48.99770 | 2.87351 | 10204 ft | 290 kts | 100° |
| 2026-05-04 10:37 | 48.99418 | 2.90498 | 10581 ft | 313 kts | 100° |
| 2026-05-04 10:37 | 48.99051 | 2.93848 | 11152 ft | 326 kts | 100° |
| 2026-05-04 10:39 | 48.88895 | 3.01991 | 15737 ft | 351 kts | 216° |
| 2026-05-04 10:39 | 48.87213 | 2.99303 | 16511 ft | 356 kts | 237° |
| 2026-05-04 10:39 | 48.86322 | 2.95784 | 17286 ft | 362 kts | 259° |
| 2026-05-04 10:40 | 48.86026 | 2.91964 | 18038 ft | 365 kts | 263° |
| 2026-05-04 10:40 | 48.85768 | 2.88111 | 18713 ft | 369 kts | 263° |
| 2026-05-04 10:40 | 48.85510 | 2.84221 | 19349 ft | 371 kts | 262° |
| 2026-05-04 10:40 | 48.85247 | 2.80316 | 20011 ft | 373 kts | 262° |
| 2026-05-04 10:41 | 48.84975 | 2.76388 | 20674 ft | 374 kts | 261° |
| 2026-05-04 10:41 | 48.84697 | 2.72497 | 21321 ft | 376 kts | 261° |
| 2026-05-04 10:41 | 48.84407 | 2.68538 | 21983 ft | 378 kts | 261° |
| 2026-05-04 10:41 | 48.83972 | 2.64602 | 22626 ft | 377 kts | 252° |
| 2026-05-04 10:42 | 48.83058 | 2.60875 | 23293 ft | 376 kts | 241° |
| 2026-05-04 10:42 | 48.81703 | 2.57491 | 23875 ft | 375 kts | 233° |
| 2026-05-04 10:42 | 48.80186 | 2.54256 | 24399 ft | 377 kts | 232° |
| 2026-05-04 10:42 | 48.78663 | 2.51012 | 24900 ft | 378 kts | 232° |
| 2026-05-04 10:43 | 48.77148 | 2.47790 | 25386 ft | 380 kts | 232° |
| 2026-05-04 10:44 | 48.62987 | 2.29953 | 28929 ft | 388 kts | 208° |
| 2026-05-04 10:45 | 48.60682 | 2.27882 | 28994 ft | 379 kts | 208° |
| 2026-05-04 10:45 | 48.59207 | 2.26553 | 28998 ft | 367 kts | 208° |
| 2026-05-04 10:45 | 48.57036 | 2.24594 | 28996 ft | 360 kts | 208° |
| 2026-05-04 10:46 | 48.52050 | 2.20132 | 28992 ft | 357 kts | 208° |
| 2026-05-04 10:46 | 48.48469 | 2.16946 | 28983 ft | 356 kts | 208° |
| 2026-05-04 10:47 | 48.44178 | 2.13176 | 28981 ft | 358 kts | 208° |
| 2026-05-04 10:47 | 48.39886 | 2.09433 | 28975 ft | 359 kts | 208° |
| 2026-05-04 10:49 | 48.21406 | 2.00617 | 28958 ft | 358 kts | 180° |
| 2026-05-04 10:50 | 48.16426 | 2.00755 | 28957 ft | 358 kts | 180° |
| 2026-05-04 10:52 | 47.96499 | 2.01665 | 28980 ft | 358 kts | 179° |
| 2026-05-04 10:52 | 47.91516 | 2.01980 | 28983 ft | 358 kts | 179° |
| 2026-05-04 10:54 | 47.71566 | 2.03153 | 28955 ft | 359 kts | 180° |
| 2026-05-04 10:56 | 47.51635 | 2.04311 | 28946 ft | 359 kts | 180° |
| 2026-05-04 10:57 | 47.46630 | 2.04597 | 28951 ft | 359 kts | 180° |
| 2026-05-04 10:57 | 47.41637 | 2.04872 | 28954 ft | 359 kts | 180° |
| 2026-05-04 10:58 | 47.36634 | 2.05160 | 28951 ft | 359 kts | 180° |
| 2026-05-04 10:58 | 47.31684 | 2.04707 | 28953 ft | 356 kts | 191° |
| 2026-05-04 10:59 | 47.26799 | 2.03456 | 28952 ft | 356 kts | 191° |
| 2026-05-04 10:59 | 47.21939 | 2.02223 | 28953 ft | 356 kts | 191° |
| 2026-05-04 11:00 | 47.17055 | 2.00989 | 28950 ft | 356 kts | 191° |
| 2026-05-04 11:02 | 46.97555 | 1.96084 | 28949 ft | 354 kts | 191° |
| 2026-05-04 11:05 | 46.61064 | 1.86999 | 28948 ft | 354 kts | 191° |
| 2026-05-04 11:06 | 46.56201 | 1.85803 | 28943 ft | 354 kts | 191° |
| 2026-05-04 11:06 | 46.51365 | 1.84613 | 28932 ft | 355 kts | 191° |
| 2026-05-04 11:10 | 46.19049 | 1.69943 | 28961 ft | 367 kts | 219° |
| 2026-05-04 11:12 | 46.05458 | 1.53018 | 25549 ft | 355 kts | 219° |
| 2026-05-04 11:12 | 46.03594 | 1.50711 | 25116 ft | 351 kts | 219° |
| 2026-05-04 11:12 | 46.01773 | 1.48458 | 24688 ft | 348 kts | 219° |
| 2026-05-04 11:12 | 45.99945 | 1.46197 | 24237 ft | 345 kts | 219° |
| 2026-05-04 11:13 | 45.98133 | 1.43950 | 23792 ft | 342 kts | 219° |
| 2026-05-04 11:13 | 45.96335 | 1.41718 | 23303 ft | 340 kts | 221° |
| 2026-05-04 11:13 | 45.94777 | 1.39185 | 22975 ft | 336 kts | 233° |
| 2026-05-04 11:13 | 45.93620 | 1.36271 | 22968 ft | 337 kts | 240° |
| 2026-05-04 11:14 | 45.92556 | 1.33264 | 22973 ft | 337 kts | 240° |
| 2026-05-04 11:14 | 45.91492 | 1.30272 | 22974 ft | 337 kts | 240° |
| 2026-05-04 11:14 | 45.90424 | 1.27279 | 22975 ft | 337 kts | 240° |
| 2026-05-04 11:16 | 45.82969 | 1.06386 | 22978 ft | 335 kts | 239° |
| 2026-05-04 11:16 | 45.81905 | 1.03418 | 22974 ft | 335 kts | 238° |
| 2026-05-04 11:16 | 45.80636 | 1.00642 | 22972 ft | 332 kts | 231° |
| 2026-05-04 11:17 | 45.79274 | 0.97965 | 22972 ft | 332 kts | 231° |
| 2026-05-04 11:17 | 45.77913 | 0.95293 | 22968 ft | 332 kts | 231° |
| 2026-05-04 11:19 | 45.68384 | 0.76613 | 22965 ft | 333 kts | 231° |
| 2026-05-04 11:19 | 45.67018 | 0.73941 | 22769 ft | 333 kts | 231° |
| 2026-05-04 11:19 | 45.65654 | 0.71273 | 22502 ft | 331 kts | 231° |
| 2026-05-04 11:19 | 45.64296 | 0.68620 | 22232 ft | 330 kts | 231° |
| 2026-05-04 11:20 | 45.62939 | 0.65978 | 21965 ft | 329 kts | 231° |
| 2026-05-04 11:20 | 45.61586 | 0.63350 | 21696 ft | 328 kts | 231° |
| 2026-05-04 11:20 | 45.60256 | 0.60763 | 21439 ft | 326 kts | 231° |
| 2026-05-04 11:20 | 45.58899 | 0.58121 | 21177 ft | 325 kts | 231° |
| 2026-05-04 11:22 | 45.49643 | 0.40192 | 19941 ft | 319 kts | 231° |
| 2026-05-04 11:22 | 45.48319 | 0.37646 | 19956 ft | 320 kts | 231° |
| 2026-05-04 11:23 | 45.46999 | 0.35103 | 19941 ft | 317 kts | 231° |
| 2026-05-04 11:23 | 45.45684 | 0.32568 | 19942 ft | 319 kts | 231° |
| 2026-05-04 11:24 | 45.37504 | 0.16870 | 17486 ft | 333 kts | 231° |
| 2026-05-04 11:25 | 45.36142 | 0.14261 | 16998 ft | 332 kts | 231° |
| 2026-05-04 11:25 | 45.34756 | 0.11601 | 16525 ft | 330 kts | 232° |
| 2026-05-04 11:25 | 45.33418 | 0.09007 | 16085 ft | 328 kts | 232° |
| 2026-05-04 11:26 | 45.30759 | 0.03810 | 15031 ft | 321 kts | 232° |
| 2026-05-04 11:27 | 45.21801 | -0.13614 | 11343 ft | 291 kts | 233° |
| 2026-05-04 11:28 | 45.20598 | -0.15938 | 10598 ft | 302 kts | 233° |
| 2026-05-04 11:28 | 45.19340 | -0.18367 | 9818 ft | 306 kts | 233° |
| 2026-05-04 11:28 | 45.18093 | -0.20779 | 9183 ft | 298 kts | 233° |
| 2026-05-04 11:28 | 45.16888 | -0.23073 | 8719 ft | 282 kts | 229° |
| 2026-05-04 11:29 | 45.15552 | -0.25052 | 8293 ft | 277 kts | 225° |
| 2026-05-04 11:29 | 45.14204 | -0.26996 | 7848 ft | 275 kts | 225° |
| 2026-05-04 11:29 | 45.12867 | -0.28923 | 7418 ft | 271 kts | 225° |
| 2026-05-04 11:29 | 45.11556 | -0.30813 | 7000 ft | 267 kts | 225° |
| 2026-05-04 11:31 | 45.02961 | -0.42881 | 4258 ft | 242 kts | 225° |
| 2026-05-04 11:33 | 44.95237 | -0.53790 | 2994 ft | 195 kts | 226° |
| 2026-05-04 11:33 | 44.94321 | -0.55108 | 3029 ft | 184 kts | 226° |
| 2026-05-04 11:33 | 44.93431 | -0.56387 | 2850 ft | 180 kts | 226° |
| 2026-05-04 11:34 | 44.92564 | -0.57633 | 2628 ft | 176 kts | 226° |
| 2026-05-04 11:34 | 44.91711 | -0.58859 | 2396 ft | 176 kts | 226° |
| 2026-05-04 11:34 | 44.90881 | -0.60051 | 2164 ft | 164 kts | 226° |
| 2026-05-04 11:34 | 44.90091 | -0.61184 | 1940 ft | 161 kts | 226° |
| 2026-05-04 11:35 | 44.89334 | -0.62269 | 1738 ft | 147 kts | 226° |
| 2026-05-04 11:35 | 44.88640 | -0.63264 | 1549 ft | 140 kts | 226° |
| 2026-05-04 11:35 | 44.87970 | -0.64225 | 1372 ft | 135 kts | 227° |
| 2026-05-04 11:35 | 44.87323 | -0.65152 | 1199 ft | 133 kts | 227° |
| 2026-05-04 11:36 | 44.86676 | -0.66079 | 1010 ft | 134 kts | 225° |
| 2026-05-04 11:36 | 44.86015 | -0.67028 | 809 ft | 137 kts | 226° |
| 2026-05-04 11:36 | 44.85347 | -0.67987 | 623 ft | 138 kts | 226° |
| 2026-05-04 11:36 | 44.84663 | -0.68962 | 428 ft | 142 kts | 229° |
| 2026-05-04 11:37 | 44.83958 | -0.69971 | 232 ft | 145 kts | 228° |
| 2026-05-04 11:37 | 44.83279 | -0.70953 | 161 ft | 124 kts | 224° |
| 2026-05-04 11:37 | 44.82793 | -0.71642 | 161 ft | 75 kts | 225° |
| 2026-05-04 11:37 | 44.82574 | -0.71940 | 160 ft | 17 kts | 207° |
| 2026-05-04 11:38 | 44.82506 | -0.71858 | 156 ft | 14 kts | 129° |
| 2026-05-04 11:38 | 44.82452 | -0.71757 | 157 ft | 12 kts | 116° |
| 2026-05-04 11:38 | 44.82453 | -0.71667 | 160 ft | 8 kts | 53° |
| 2026-05-04 11:38 | 44.82499 | -0.71604 | 160 ft | 11 kts | 46° |
| 2026-05-04 11:39 | 44.82569 | -0.71503 | 160 ft | 18 kts | 45° |
| 2026-05-04 11:39 | 44.82668 | -0.71365 | 158 ft | 23 kts | 44° |
| 2026-05-04 11:40 | 44.82893 | -0.70442 | 159 ft | 12 kts | 45° |
| 2026-05-04 11:41 | 44.82952 | -0.70364 | 159 ft | 7 kts | 43° |
| 2026-05-04 11:41 | 44.82977 | -0.70305 | 159 ft | 5 kts | 78° |
| 2026-05-04 11:41 | 44.82979 | -0.70295 | 159 ft | 0 kts | 77° |